Puntzi Mountain, Canada
Current Conditions -  °F | °C
As of 6:00 PM on Wednesday 17 Dec 2014 (Local Time) from CYWL Reporting Station
Broken Clouds Broken Clouds  
Wind Chill: -4°   Ceiling: 12000
Heat Index:   Visibility: 15mi
Dew Point: -3°   Wind: 7mph
Humidity: 80%   Direction: 120°ESE
Pressure: 29.78"   Gusts: NA
Location:  52.12°N, 124.13°W
Report Text: CYWL 180200Z 12006KT 15SM FEW070 BKN120 00/M03 A2978 RMK AC2AC5 SLP122
Loading
Personal Weather Stations






























Interactive Weather Map New forecast layout! Learn more

10-Day Weather Forecast

Advertisements
Track Severe Weather on mobile